Terminal Aerodrome Forecast
Issued by NWS Sterling, VA

Home | Current Version | Previous Version | Text Only | Print | Product List | Glossary On
Versions: 1 2 3 4 5 6 7 8 9 10 11 12 13 14 15 16 17 18 19 20 21 22
000
FTUS41 KLWX 061135
TAFCHO
TAF
KCHO 061135Z 0612/0712 36006KT 6SM -RA BR OVC035
     FM061300 36006KT 6SM SHRA BR OVC025
     FM062000 36005KT 6SM SHRA BR OVC035
     FM070000 VRB03KT 6SM BR OVC020=

USA.gov is the U.S. government's official web portal to all federal, state and local government web resources and services.